Terminal Aerodrome Forecast
Issued by NWS

Home | Current Version | Previous Version | Text Only | Print | Product List | Glossary On
Versions: 1 2 3 4 5 6 7 8 9 10 11 12 13 14 15 16 17 18
113
FTUS44 KEPZ 290522
TAFTCS
TAF
KTCS 290522Z 2906/3006 27011G22KT P6SM BKN060 BKN120
     FM291400 33018G28KT P6SM BKN040 BKN110
     FM291900 36015G35KT P6SM BKN040 BKN110
     FM300400 29007KT P6SM FEW040 SCT110=

USA.gov is the U.S. government's official web portal to all federal, state and local government web resources and services.